Time;durP1;ratioP1;P1;durP2;ratioP2;P2;SDS_P1;SDS_P2;PMS_P1;PMS_P2;Temp;Humidity;BMP_temperature;BMP_pressure;BME280_temperature;BME280_humidity;BME280_pressure;Samples;Min_cycle;Max_cycle;Signal;HPM_P1;HPM_P2
2022/03/18 00:00:21;;;;;;;;;;;18.80;54.50;;;;;;4998077;28;19914;-50
2022/03/18 00:02:49;;;;;;;;;;;18.80;54.50;;;;;;4997851;28;19917;-52
2022/03/18 00:05:14;;;;;;;;;;;18.70;54.50;;;;;;4998673;28;20680;-54
2022/03/18 00:07:44;;;;;;;;;;;18.80;54.60;;;;;;4998167;28;19922;-51
2022/03/18 00:10:10;;;;;;;;;;;18.70;54.60;;;;;;4997223;28;19956;-51
2022/03/18 00:12:37;;;;;;;;;;;18.70;54.60;;;;;;5001681;28;20558;-53
2022/03/18 00:15:04;;;;;;;;;;;18.70;54.60;;;;;;4999033;28;19959;-50
2022/03/18 00:17:30;;;;;;;;;;;18.60;54.60;;;;;;4998173;28;19968;-54
2022/03/18 00:19:55;;;;;;;;;;;18.60;54.70;;;;;;4998318;28;19913;-53
2022/03/18 00:22:21;;;;;;;;;;;18.60;54.80;;;;;;5003872;28;19921;-54
2022/03/18 00:24:46;;;;;;;;;;;18.60;54.80;;;;;;4998761;28;20362;-50
2022/03/18 00:27:12;;;;;;;;;;;18.50;54.70;;;;;;4998520;28;20370;-50
2022/03/18 00:29:38;;;;;;;;;;;18.50;54.80;;;;;;4997500;28;19983;-52
2022/03/18 00:32:04;;;;;;;;;;;18.50;54.80;;;;;;4997941;28;20051;-51
2022/03/18 00:34:29;;;;;;;;;;;18.50;54.70;;;;;;4997246;28;20019;-52
2022/03/18 00:36:55;;;;;;;;;;;18.50;54.70;;;;;;5000417;28;19922;-50
2022/03/18 00:39:20;;;;;;;;;;;18.60;54.70;;;;;;4999011;28;19917;-52
2022/03/18 00:41:46;;;;;;;;;;;18.50;54.70;;;;;;4998406;28;20012;-52
2022/03/18 00:44:11;;;;;;;;;;;18.50;54.70;;;;;;5001231;28;19914;-53
2022/03/18 00:46:36;;;;;;;;;;;18.50;54.70;;;;;;5002674;28;19920;-49
2022/03/18 00:54:37;;;;;;;;;;;18.50;54.70;;;;;;4996157;28;19920;-52
2022/03/18 00:57:03;;;;;;;;;;;18.50;54.60;;;;;;5002910;28;19914;-56
2022/03/18 00:59:29;;;;;;;;;;;18.50;54.80;;;;;;5001450;28;19913;-51
2022/03/18 01:01:55;;;;;;;;;;;18.50;54.80;;;;;;5042809;23;19982;-64
2022/03/18 01:04:20;;;;;;;;;;;18.50;54.60;;;;;;5044437;28;19920;-64
2022/03/18 01:06:46;;;;;;;;;;;18.50;54.60;;;;;;5044266;28;19966;-63
2022/03/18 01:09:11;;;;;;;;;;;18.50;54.60;;;;;;5043869;28;19921;-62
2022/03/18 01:11:37;;;;;;;;;;;18.50;54.50;;;;;;5044600;28;19917;-63
2022/03/18 01:14:02;;;;;;;;;;;18.50;54.60;;;;;;5044277;28;19960;-63
2022/03/18 01:16:27;;;;;;;;;;;18.50;54.60;;;;;;5045648;28;19944;-63
2022/03/18 01:18:53;;;;;;;;;;;18.40;54.60;;;;;;5043766;28;19917;-57
2022/03/18 01:21:18;;;;;;;;;;;18.40;54.70;;;;;;5043890;28;20394;-63
2022/03/18 01:23:44;;;;;;;;;;;18.50;54.80;;;;;;5043619;28;19939;-64
2022/03/18 01:26:09;;;;;;;;;;;18.40;54.80;;;;;;5044030;28;19916;-64
2022/03/18 01:28:35;;;;;;;;;;;18.40;54.80;;;;;;5043325;28;19917;-63
2022/03/18 01:31:00;;;;;;;;;;;18.40;55.30;;;;;;5044718;28;20299;-59
2022/03/18 01:33:25;;;;;;;;;;;18.40;54.60;;;;;;5043820;28;19970;-63
2022/03/18 01:35:51;;;;;;;;;;;18.40;54.80;;;;;;5043758;28;19959;-63
2022/03/18 01:38:16;;;;;;;;;;;18.40;54.70;;;;;;5044164;28;19913;-63
2022/03/18 01:40:42;;;;;;;;;;;18.40;54.80;;;;;;5043668;28;20342;-64
2022/03/18 01:43:09;;;;;;;;;;;18.40;54.60;;;;;;5043361;28;19967;-63
2022/03/18 01:45:34;;;;;;;;;;;18.40;54.70;;;;;;5043451;28;20398;-63
2022/03/18 01:47:59;;;;;;;;;;;18.40;54.80;;;;;;5043781;28;20012;-64
2022/03/18 01:50:25;;;;;;;;;;;18.40;54.70;;;;;;5043379;28;19917;-62
2022/03/18 01:52:50;;;;;;;;;;;18.40;54.70;;;;;;5044072;28;20035;-64
2022/03/18 01:55:16;;;;;;;;;;;18.30;54.70;;;;;;5043138;28;19913;-63
2022/03/18 01:57:43;;;;;;;;;;;18.30;54.80;;;;;;5043949;28;19998;-63
2022/03/18 02:00:09;;;;;;;;;;;18.40;54.80;;;;;;5042913;28;19952;-63
2022/03/18 02:02:34;;;;;;;;;;;18.30;54.70;;;;;;5043980;28;19941;-57
2022/03/18 02:04:59;;;;;;;;;;;18.40;54.50;;;;;;5043654;28;19913;-63
2022/03/18 02:07:25;;;;;;;;;;;18.40;54.60;;;;;;5044129;28;19967;-64
2022/03/18 02:09:50;;;;;;;;;;;18.40;54.60;;;;;;5042920;28;19921;-60
2022/03/18 02:12:16;;;;;;;;;;;18.40;54.60;;;;;;5044016;28;20343;-63
2022/03/18 02:14:42;;;;;;;;;;;18.30;54.60;;;;;;5043376;28;19920;-65
2022/03/18 02:17:08;;;;;;;;;;;18.40;54.50;;;;;;5043704;28;19913;-65
2022/03/18 02:19:33;;;;;;;;;;;18.40;54.60;;;;;;5041908;28;19920;-63
2022/03/18 02:21:59;;;;;;;;;;;18.40;54.50;;;;;;5043909;28;19925;-62
2022/03/18 02:24:24;;;;;;;;;;;18.30;54.50;;;;;;5030795;28;19913;-62
2022/03/18 02:26:53;;;;;;;;;;;18.30;54.40;;;;;;5043266;28;19917;-64
2022/03/18 02:29:18;;;;;;;;;;;18.30;54.40;;;;;;5042417;28;19931;-63
2022/03/18 02:31:44;;;;;;;;;;;18.40;54.40;;;;;;5042882;28;19917;-63
2022/03/18 02:34:09;;;;;;;;;;;18.40;54.40;;;;;;5043094;28;19912;-64
2022/03/18 02:36:35;;;;;;;;;;;18.40;54.40;;;;;;5043604;28;19917;-65
2022/03/18 02:39:00;;;;;;;;;;;18.40;54.40;;;;;;5043006;28;19917;-64
2022/03/18 02:41:26;;;;;;;;;;;18.40;54.50;;;;;;5042711;28;20374;-62
2022/03/18 02:43:51;;;;;;;;;;;18.40;54.30;;;;;;5042742;28;19917;-62
2022/03/18 02:46:17;;;;;;;;;;;18.40;54.40;;;;;;5043352;28;19917;-64
2022/03/18 02:48:42;;;;;;;;;;;18.40;54.50;;;;;;5041688;28;19951;-63
2022/03/18 02:51:08;;;;;;;;;;;18.30;54.60;;;;;;5043007;28;20465;-63
2022/03/18 02:53:34;;;;;;;;;;;18.30;54.40;;;;;;5042999;28;19913;-64
2022/03/18 02:55:59;;;;;;;;;;;18.40;54.40;;;;;;5043485;28;19924;-64
2022/03/18 02:58:25;;;;;;;;;;;18.30;54.40;;;;;;5043160;28;19917;-64
2022/03/18 03:00:51;;;;;;;;;;;18.30;54.40;;;;;;5043051;28;19925;-63
2022/03/18 03:03:16;;;;;;;;;;;18.30;54.40;;;;;;5043032;28;20533;-62
2022/03/18 03:08:26;;;;;;;;;;;18.40;54.10;;;;;;5039424;28;19963;-63
2022/03/18 03:10:51;;;;;;;;;;;18.50;53.80;;;;;;5042319;28;19928;-61
2022/03/18 03:13:17;;;;;;;;;;;18.40;53.80;;;;;;5042420;28;20010;-59
2022/03/18 03:15:42;;;;;;;;;;;18.40;54.00;;;;;;5042472;28;19928;-64
2022/03/18 03:18:08;;;;;;;;;;;18.30;54.10;;;;;;5042558;28;19913;-63
2022/03/18 03:20:33;;;;;;;;;;;18.30;54.10;;;;;;5041462;28;19913;-63
2022/03/18 03:22:59;;;;;;;;;;;18.30;54.90;;;;;;5042462;28;20427;-63
2022/03/18 03:25:24;;;;;;;;;;;18.30;54.30;;;;;;5041841;28;19923;-62
2022/03/18 03:27:53;;;;;;;;;;;18.30;54.30;;;;;;5041024;28;19917;-58
2022/03/18 03:30:18;;;;;;;;;;;18.20;54.30;;;;;;5040466;28;19996;-63
2022/03/18 03:32:44;;;;;;;;;;;18.30;54.40;;;;;;5041332;28;19916;-62
2022/03/18 03:35:10;;;;;;;;;;;18.30;54.40;;;;;;5041371;28;19913;-64
2022/03/18 03:37:36;;;;;;;;;;;18.20;54.30;;;;;;5041994;28;20000;-59
2022/03/18 03:40:01;;;;;;;;;;;18.20;54.20;;;;;;5042580;28;19928;-65
2022/03/18 03:42:27;;;;;;;;;;;18.20;54.20;;;;;;5042924;28;19920;-62
2022/03/18 03:44:52;;;;;;;;;;;18.20;54.30;;;;;;5041599;28;20351;-64
2022/03/18 03:47:17;;;;;;;;;;;18.30;54.30;;;;;;5041655;28;19923;-63
2022/03/18 03:49:44;;;;;;;;;;;18.20;54.20;;;;;;5028276;28;19920;-61
2022/03/18 03:52:09;;;;;;;;;;;18.30;54.20;;;;;;5041973;28;19952;-63
2022/03/18 03:54:35;;;;;;;;;;;18.20;54.20;;;;;;5042095;28;20505;-64
2022/03/18 03:57:00;;;;;;;;;;;18.30;54.20;;;;;;5041347;28;19916;-63
2022/03/18 03:59:26;;;;;;;;;;;18.30;54.10;;;;;;5040502;28;19917;-62
2022/03/18 04:01:51;;;;;;;;;;;18.30;54.00;;;;;;5041649;28;19920;-63
2022/03/18 04:04:17;;;;;;;;;;;18.30;53.90;;;;;;5040868;28;19955;-63
2022/03/18 04:06:43;;;;;;;;;;;18.30;54.00;;;;;;5040827;28;19917;-63
2022/03/18 04:09:08;;;;;;;;;;;18.30;54.00;;;;;;5040266;28;19968;-62
2022/03/18 04:11:34;;;;;;;;;;;18.20;54.00;;;;;;5041588;28;20517;-64
2022/03/18 04:13:59;;;;;;;;;;;18.20;54.60;;;;;;5041135;28;19917;-63
2022/03/18 04:16:25;;;;;;;;;;;18.20;54.00;;;;;;5041015;28;19966;-63
2022/03/18 04:18:50;;;;;;;;;;;18.20;53.90;;;;;;5040906;28;19924;-63
2022/03/18 04:21:16;;;;;;;;;;;18.20;54.00;;;;;;5041195;28;20405;-61
2022/03/18 04:23:41;;;;;;;;;;;18.20;54.00;;;;;;5041063;28;19920;-65
2022/03/18 04:26:06;;;;;;;;;;;18.20;54.00;;;;;;5041920;28;19924;-62
2022/03/18 04:28:32;;;;;;;;;;;18.20;53.90;;;;;;5040654;28;19917;-58
2022/03/18 04:30:57;;;;;;;;;;;18.20;53.90;;;;;;5040092;28;19990;-59
2022/03/18 04:33:23;;;;;;;;;;;18.20;53.80;;;;;;5041103;28;19960;-62
2022/03/18 04:35:48;;;;;;;;;;;18.20;53.90;;;;;;5040528;28;20551;-58
2022/03/18 04:38:14;;;;;;;;;;;18.20;53.90;;;;;;5040896;28;19955;-62
2022/03/18 04:40:39;;;;;;;;;;;18.20;53.80;;;;;;5040352;28;19917;-65
2022/03/18 04:43:05;;;;;;;;;;;18.20;53.90;;;;;;5041340;28;19920;-63
2022/03/18 04:45:30;;;;;;;;;;;18.20;53.90;;;;;;5041306;28;20282;-65
2022/03/18 04:47:56;;;;;;;;;;;18.20;53.90;;;;;;5040675;28;19978;-63
2022/03/18 04:50:21;;;;;;;;;;;18.20;53.90;;;;;;5038415;28;19925;-63
2022/03/18 04:52:46;;;;;;;;;;;18.10;53.90;;;;;;5041012;28;19994;-62
2022/03/18 04:55:12;;;;;;;;;;;18.20;53.90;;;;;;5040748;28;19913;-64
2022/03/18 04:57:38;;;;;;;;;;;18.20;53.90;;;;;;5040062;28;19916;-61
2022/03/18 05:00:04;;;;;;;;;;;18.20;53.90;;;;;;5040425;28;20375;-63
2022/03/18 05:02:30;;;;;;;;;;;18.20;54.00;;;;;;5038537;28;19921;-63
2022/03/18 05:04:55;;;;;;;;;;;18.10;53.80;;;;;;5040618;28;19928;-63
2022/03/18 05:07:21;;;;;;;;;;;18.20;53.80;;;;;;5041114;28;19920;-62
2022/03/18 05:09:46;;;;;;;;;;;18.20;53.80;;;;;;5040398;28;19921;-65
2022/03/18 05:12:12;;;;;;;;;;;18.20;53.60;;;;;;5039897;28;19917;-64
2022/03/18 05:14:38;;;;;;;;;;;18.20;53.60;;;;;;5040616;28;19916;-63
2022/03/18 05:17:04;;;;;;;;;;;18.20;53.60;;;;;;5040778;28;19913;-62
2022/03/18 05:19:30;;;;;;;;;;;18.30;53.60;;;;;;5040317;28;19917;-62
2022/03/18 05:21:55;;;;;;;;;;;18.20;53.60;;;;;;5040513;28;19974;-62
2022/03/18 05:24:21;;;;;;;;;;;18.20;53.70;;;;;;5040902;28;19916;-62
2022/03/18 05:26:46;;;;;;;;;;;18.20;53.60;;;;;;5040585;28;19917;-65
2022/03/18 05:29:13;;;;;;;;;;;18.10;53.80;;;;;;5041262;28;20709;-57
2022/03/18 05:31:39;;;;;;;;;;;18.10;54.00;;;;;;5043972;28;19917;-60
2022/03/18 05:34:04;;;;;;;;;;;18.10;54.20;;;;;;5044783;28;19923;-59
2022/03/18 05:36:29;;;;;;;;;;;18.10;54.80;;;;;;5044819;28;19921;-65
2022/03/18 05:38:55;;;;;;;;;;;18.30;54.30;;;;;;5043445;28;19920;-59
2022/03/18 05:41:20;;;;;;;;;;;18.40;54.20;;;;;;5031889;22;19920;-54
2022/03/18 05:43:46;;;;;;;;;;;18.50;54.20;;;;;;5018095;28;19971;-55
2022/03/18 05:46:11;;;;;;;;;;;18.50;54.20;;;;;;5019604;28;20361;-55
2022/03/18 05:48:37;;;;;;;;;;;18.50;54.30;;;;;;5020902;28;19913;-54
2022/03/18 05:51:02;;;;;;;;;;;18.50;54.40;;;;;;5021125;28;20055;-54
2022/03/18 05:53:28;;;;;;;;;;;18.60;54.50;;;;;;5023132;28;19913;-55
2022/03/18 05:58:38;;;;;;;;;;;18.60;55.00;;;;;;5019096;28;19975;-53
2022/03/18 06:01:04;;;;;;;;;;;18.50;54.90;;;;;;5021927;28;19917;-56
2022/03/18 06:03:29;;;;;;;;;;;18.50;54.80;;;;;;5022871;28;19932;-54
2022/03/18 06:05:55;;;;;;;;;;;18.50;54.80;;;;;;5021752;28;19920;-52
2022/03/18 06:13:48;;;;;;;;;;;18.40;54.70;;;;;;5020657;28;19967;-56
2022/03/18 06:16:14;;;;;;;;;;;18.30;54.90;;;;;;5021310;28;20317;-55
2022/03/18 06:18:39;;;;;;;;;;;18.30;54.80;;;;;;5020648;28;19914;-56
2022/03/18 06:21:05;;;;;;;;;;;18.30;54.90;;;;;;5019052;28;19924;-55
2022/03/18 06:23:30;;;;;;;;;;;18.40;55.50;;;;;;5016342;28;20322;-54
2022/03/18 06:25:56;;;;;;;;;;;18.40;55.50;;;;;;5017763;28;19921;-55
2022/03/18 06:28:22;;;;;;;;;;;18.40;55.60;;;;;;5018745;28;19936;-55
2022/03/18 06:30:47;;;;;;;;;;;18.30;55.60;;;;;;5017425;28;20405;-53
2022/03/18 06:33:12;;;;;;;;;;;18.30;55.30;;;;;;5017273;28;19925;-51
2022/03/18 06:35:38;;;;;;;;;;;18.30;54.90;;;;;;5018221;28;19967;-55
2022/03/18 06:38:03;;;;;;;;;;;18.30;54.80;;;;;;5019377;28;20388;-56
2022/03/18 06:40:29;;;;;;;;;;;18.30;54.90;;;;;;5019027;28;20358;-55
2022/03/18 06:42:54;;;;;;;;;;;18.30;54.80;;;;;;5020640;28;20130;-54
2022/03/18 06:45:21;;;;;;;;;;;18.30;54.60;;;;;;5022433;28;19914;-56
2022/03/18 06:47:47;;;;;;;;;;;18.30;54.40;;;;;;5019118;28;19913;-52
2022/03/18 06:50:12;;;;;;;;;;;18.30;54.40;;;;;;5016725;28;19971;-57
2022/03/18 06:52:38;;;;;;;;;;;18.30;54.40;;;;;;5018443;28;20463;-54
2022/03/18 06:55:03;;;;;;;;;;;18.30;54.30;;;;;;5018620;28;19917;-52
2022/03/18 06:57:29;;;;;;;;;;;18.20;54.30;;;;;;5018519;28;19917;-54
2022/03/18 06:59:54;;;;;;;;;;;18.20;54.30;;;;;;5018960;28;19913;-53
2022/03/18 07:02:20;;;;;;;;;;;18.20;54.30;;;;;;5018967;28;19964;-57
2022/03/18 07:04:45;;;;;;;;;;;18.20;56.60;;;;;;5018675;28;20293;-55
2022/03/18 07:07:11;;;;;;;;;;;18.30;56.70;;;;;;5009266;28;19913;-55
2022/03/18 07:09:36;;;;;;;;;;;18.60;56.80;;;;;;5017298;28;19929;-53
2022/03/18 07:12:02;;;;;;;;;;;18.70;54.60;;;;;;5018328;28;19920;-52
2022/03/18 07:14:27;;;;;;;;;;;18.70;53.60;;;;;;5017758;28;19948;-51
2022/03/18 07:19:38;;;;;;;;;;;18.80;53.80;;;;;;5017581;28;20393;-51
2022/03/18 07:22:04;;;;;;;;;;;18.70;53.90;;;;;;5018392;28;19921;-55
2022/03/18 07:24:29;;;;;;;;;;;18.80;54.00;;;;;;5018084;28;19917;-51
2022/03/18 07:26:55;;;;;;;;;;;18.80;54.10;;;;;;5017581;28;20111;-55
2022/03/18 07:29:20;;;;;;;;;;;18.70;54.00;;;;;;5018278;28;19917;-56
2022/03/18 07:31:46;;;;;;;;;;;18.70;54.10;;;;;;5018010;28;19913;-53
2022/03/18 07:34:11;;;;;;;;;;;18.70;54.00;;;;;;5017328;28;19936;-51
2022/03/18 07:36:37;;;;;;;;;;;18.70;53.90;;;;;;5018447;28;19967;-54
2022/03/18 07:39:02;;;;;;;;;;;18.70;54.00;;;;;;5017558;28;20388;-54
2022/03/18 07:41:28;;;;;;;;;;;18.70;54.10;;;;;;5018441;28;19913;-52
2022/03/18 07:43:53;;;;;;;;;;;18.70;54.10;;;;;;5020372;28;19914;-52
2022/03/18 07:46:19;;;;;;;;;;;18.70;54.10;;;;;;5019239;28;19976;-51
2022/03/18 07:48:45;;;;;;;;;;;18.80;54.20;;;;;;5017840;28;19913;-53
2022/03/18 07:51:11;;;;;;;;;;;18.80;54.00;;;;;;5018912;28;19921;-54
2022/03/18 07:53:37;;;;;;;;;;;18.80;53.60;;;;;;5017864;28;19913;-55
2022/03/18 07:56:02;;;;;;;;;;;18.80;53.30;;;;;;5018812;28;19958;-51
2022/03/18 07:58:28;;;;;;;;;;;18.80;53.30;;;;;;5000871;28;19913;-54
2022/03/18 08:00:53;;;;;;;;;;;18.80;53.50;;;;;;5017254;28;20373;-54
2022/03/18 08:03:19;;;;;;;;;;;18.80;53.20;;;;;;5018409;28;19913;-54
2022/03/18 08:05:44;;;;;;;;;;;18.80;53.20;;;;;;5020031;28;19914;-53
2022/03/18 08:08:10;;;;;;;;;;;18.80;53.10;;;;;;5019000;28;19939;-55
2022/03/18 08:10:35;;;;;;;;;;;18.80;53.10;;;;;;5017882;28;19917;-56
2022/03/18 08:13:01;;;;;;;;;;;18.80;53.20;;;;;;5017668;28;20381;-53
2022/03/18 08:15:28;;;;;;;;;;;18.80;53.00;;;;;;4999669;28;19914;-55
2022/03/18 08:17:53;;;;;;;;;;;18.70;53.00;;;;;;5017193;28;19920;-53
2022/03/18 08:20:19;;;;;;;;;;;18.80;53.10;;;;;;5024025;28;19913;-56
2022/03/18 08:22:45;;;;;;;;;;;18.70;53.00;;;;;;5017380;28;20056;-54
2022/03/18 08:25:10;;;;;;;;;;;18.70;53.20;;;;;;5018055;28;19928;-55
2022/03/18 08:27:36;;;;;;;;;;;18.70;53.10;;;;;;5018050;28;19921;-54
2022/03/18 08:30:03;;;;;;;;;;;18.70;53.20;;;;;;5018135;28;20568;-53
2022/03/18 08:32:28;;;;;;;;;;;18.70;53.10;;;;;;5017115;28;19913;-54
2022/03/18 08:34:54;;;;;;;;;;;18.70;53.00;;;;;;5021036;28;19913;-52
2022/03/18 08:37:56;;;;;;;;;;;18.80;53.10;;;;;;5020722;28;20105;-53
2022/03/18 08:40:05;;;;;;;;;;;18.70;52.90;;;;;;5005922;28;19913;-53
2022/03/18 08:42:31;;;;;;;;;;;18.70;53.00;;;;;;5020347;28;20016;-54
2022/03/18 08:44:56;;;;;;;;;;;18.80;53.00;;;;;;5017676;28;20004;-54
2022/03/18 08:47:23;;;;;;;;;;;18.70;53.20;;;;;;5017444;28;20542;-54
2022/03/18 08:49:48;;;;;;;;;;;18.70;52.90;;;;;;5016856;28;19932;-55
2022/03/18 08:52:14;;;;;;;;;;;18.70;53.30;;;;;;5018386;28;19920;-53
2022/03/18 08:54:39;;;;;;;;;;;18.70;53.00;;;;;;5016937;28;19917;-56
2022/03/18 08:57:05;;;;;;;;;;;18.70;53.00;;;;;;5016683;28;19913;-53
2022/03/18 08:59:30;;;;;;;;;;;18.70;53.00;;;;;;5017122;28;20080;-52
2022/03/18 09:01:56;;;;;;;;;;;18.70;53.10;;;;;;5017052;28;19913;-52
2022/03/18 09:04:21;;;;;;;;;;;18.70;53.00;;;;;;5018199;28;20304;-56
2022/03/18 09:06:47;;;;;;;;;;;18.70;52.90;;;;;;5029691;28;19969;-55
2022/03/18 09:09:12;;;;;;;;;;;18.70;53.00;;;;;;5020984;28;19948;-57
2022/03/18 09:11:37;;;;;;;;;;;18.70;52.90;;;;;;5021071;28;20280;-55
2022/03/18 09:14:03;;;;;;;;;;;18.70;52.80;;;;;;5019611;28;19967;-52
2022/03/18 09:16:30;;;;;;;;;;;18.80;52.80;;;;;;5022074;28;19917;-52
2022/03/18 09:18:55;;;;;;;;;;;18.80;53.00;;;;;;5019831;28;19913;-55
2022/03/18 09:21:21;;;;;;;;;;;18.70;52.90;;;;;;5018725;28;20469;-55
2022/03/18 09:23:46;;;;;;;;;;;18.70;52.90;;;;;;5020905;28;19917;-53
2022/03/18 09:26:12;;;;;;;;;;;18.70;53.00;;;;;;5020814;28;19913;-55
2022/03/18 09:28:40;;;;;;;;;;;18.80;52.80;;;;;;5020713;28;19917;-55
2022/03/18 09:31:05;;;;;;;;;;;18.70;52.80;;;;;;5023393;28;19921;-55
2022/03/18 09:33:31;;;;;;;;;;;18.80;52.80;;;;;;5020496;28;19913;-55
2022/03/18 09:35:56;;;;;;;;;;;18.80;52.80;;;;;;5019435;28;20354;-53
2022/03/18 09:38:21;;;;;;;;;;;18.80;52.70;;;;;;5018713;28;20420;-55
2022/03/18 09:40:47;;;;;;;;;;;18.80;52.60;;;;;;5019439;28;19924;-55
2022/03/18 09:43:14;;;;;;;;;;;18.80;52.70;;;;;;5019518;28;19925;-53
2022/03/18 09:45:40;;;;;;;;;;;18.80;52.50;;;;;;5019117;28;19917;-54
2022/03/18 09:48:06;;;;;;;;;;;18.80;52.40;;;;;;5019342;28;19924;-53
2022/03/18 09:50:32;;;;;;;;;;;18.80;52.60;;;;;;5017816;28;20000;-54
2022/03/18 09:52:57;;;;;;;;;;;18.80;52.70;;;;;;5001366;28;19992;-56
2022/03/18 09:55:23;;;;;;;;;;;18.80;52.70;;;;;;5002970;28;20567;-55
2022/03/18 09:57:48;;;;;;;;;;;18.80;52.70;;;;;;5022660;28;19913;-56
2022/03/18 10:00:14;;;;;;;;;;;18.80;52.60;;;;;;5020682;28;19913;-53
2022/03/18 10:02:39;;;;;;;;;;;18.80;52.50;;;;;;5019409;28;19971;-55
2022/03/18 10:05:10;;;;;;;;;;;18.80;52.40;;;;;;5019825;28;20592;-53
2022/03/18 10:07:35;;;;;;;;;;;18.80;52.60;;;;;;5020098;28;19921;-55
2022/03/18 10:10:02;;;;;;;;;;;18.80;52.40;;;;;;5001793;28;19925;-52
2022/03/18 10:12:29;;;;;;;;;;;18.90;52.50;;;;;;5022925;28;19918;-53
2022/03/18 10:15:13;;;;;;;;;;;18.80;52.40;;;;;;5019221;28;19913;-54
2022/03/18 10:17:38;;;;;;;;;;;18.80;52.40;;;;;;5020810;28;19920;-56
2022/03/18 10:20:04;;;;;;;;;;;18.80;52.40;;;;;;5019159;28;20015;-54
2022/03/18 10:22:30;;;;;;;;;;;18.80;52.40;;;;;;5020906;28;20286;-51
2022/03/18 10:24:55;;;;;;;;;;;18.80;52.40;;;;;;5001656;28;19921;-51
2022/03/18 10:27:21;;;;;;;;;;;18.90;52.40;;;;;;5019463;28;19985;-53
2022/03/18 10:29:49;;;;;;;;;;;18.90;52.40;;;;;;5018611;28;19917;-56
2022/03/18 10:32:15;;;;;;;;;;;18.80;52.30;;;;;;5024662;28;20300;-51
2022/03/18 10:37:38;;;;;;;;;;;18.90;52.30;;;;;;5019352;28;20333;-53
2022/03/18 10:40:04;;;;;;;;;;;18.90;52.40;;;;;;5018426;28;19917;-55
2022/03/18 10:42:30;;;;;;;;;;;18.90;52.20;;;;;;5019357;28;19933;-53
2022/03/18 10:44:59;;;;;;;;;;;18.90;52.20;;;;;;5001605;28;20619;-54
2022/03/18 10:47:37;;;;;;;;;;;18.90;52.30;;;;;;5022039;28;19913;-54
2022/03/18 10:50:08;;;;;;;;;;;18.90;52.20;;;;;;4997655;28;19917;-54
2022/03/18 10:52:34;;;;;;;;;;;18.90;52.30;;;;;;5019211;28;19914;-52
2022/03/18 10:55:19;;;;;;;;;;;18.90;52.20;;;;;;5018961;28;20400;-54
2022/03/18 10:58:08;;;;;;;;;;;18.90;52.30;;;;;;4997928;28;20015;-51
2022/03/18 11:00:34;;;;;;;;;;;18.90;52.30;;;;;;5012732;28;20587;-54
2022/03/18 11:03:01;;;;;;;;;;;18.90;52.30;;;;;;5021982;28;19922;-55
2022/03/18 11:05:29;;;;;;;;;;;18.80;52.40;;;;;;5019289;28;19924;-52
2022/03/18 11:07:55;;;;;;;;;;;18.80;52.40;;;;;;5019077;28;19963;-54
2022/03/18 11:13:05;;;;;;;;;;;18.70;52.30;;;;;;5019173;28;20787;-54
2022/03/18 11:15:30;;;;;;;;;;;18.60;52.40;;;;;;5019021;28;19917;-52
2022/03/18 11:17:56;;;;;;;;;;;18.60;52.60;;;;;;5018892;28;19936;-52
2022/03/18 11:20:24;;;;;;;;;;;18.60;52.80;;;;;;5017109;28;19967;-52
2022/03/18 11:22:49;;;;;;;;;;;18.60;52.90;;;;;;5020551;28;19944;-55
2022/03/18 11:25:15;;;;;;;;;;;18.60;52.70;;;;;;5019629;28;19945;-55
2022/03/18 11:27:44;;;;;;;;;;;18.60;52.90;;;;;;5022523;28;19982;-55
2022/03/18 11:30:25;;;;;;;;;;;18.70;52.90;;;;;;5003511;28;19960;-55
2022/03/18 11:33:06;;;;;;;;;;;18.60;52.80;;;;;;5018593;28;19921;-54
2022/03/18 11:35:53;;;;;;;;;;;18.70;52.80;;;;;;5017825;28;20294;-56
2022/03/18 11:38:23;;;;;;;;;;;18.70;53.00;;;;;;5022102;28;19912;-56
2022/03/18 11:40:53;;;;;;;;;;;18.70;53.00;;;;;;5018337;28;19913;-53
2022/03/18 11:43:54;;;;;;;;;;;18.70;52.60;;;;;;5019535;28;20026;-55
2022/03/18 11:46:21;;;;;;;;;;;18.70;52.70;;;;;;4919216;28;20465;-54
2022/03/18 11:48:50;;;;;;;;;;;18.70;52.80;;;;;;4995552;28;19928;-51
2022/03/18 11:51:21;;;;;;;;;;;18.70;52.60;;;;;;5018501;28;20011;-48
2022/03/18 11:53:51;;;;;;;;;;;18.80;52.60;;;;;;5019488;28;20394;-51
2022/03/18 11:56:18;;;;;;;;;;;18.80;52.60;;;;;;4998289;28;19920;-53
2022/03/18 11:58:43;;;;;;;;;;;18.80;52.60;;;;;;4997131;28;19924;-54
2022/03/18 12:01:29;;;;;;;;;;;18.80;52.60;;;;;;5017552;28;19916;-54
2022/03/18 12:03:54;;;;;;;;;;;18.80;52.60;;;;;;5018096;28;19913;-55
2022/03/18 12:06:20;;;;;;;;;;;18.80;52.40;;;;;;5018641;28;19979;-54
2022/03/18 12:08:51;;;;;;;;;;;18.80;52.40;;;;;;5020726;28;20135;-53
2022/03/18 12:11:27;;;;;;;;;;;18.80;52.40;;;;;;5004130;28;19917;-55
2022/03/18 12:13:52;;;;;;;;;;;18.80;52.40;;;;;;5000475;28;20428;-55
2022/03/18 12:16:19;;;;;;;;;;;18.80;52.30;;;;;;5017858;28;19956;-55
2022/03/18 12:18:44;;;;;;;;;;;18.80;52.30;;;;;;5022624;28;20000;-51
2022/03/18 12:21:09;;;;;;;;;;;18.80;52.20;;;;;;5019078;28;19971;-53
2022/03/18 12:23:35;;;;;;;;;;;18.80;52.20;;;;;;5020264;28;19979;-52
2022/03/18 12:26:04;;;;;;;;;;;18.80;52.20;;;;;;5022248;28;20377;-51
2022/03/18 12:28:43;;;;;;;;;;;18.80;52.20;;;;;;4999974;28;19952;-53
2022/03/18 12:31:14;;;;;;;;;;;18.80;52.20;;;;;;5016742;28;19924;-52
2022/03/18 12:33:40;;;;;;;;;;;18.80;52.20;;;;;;5017392;28;19988;-53
2022/03/18 12:36:05;;;;;;;;;;;18.80;52.10;;;;;;5000139;28;19921;-54
2022/03/18 12:38:34;;;;;;;;;;;18.80;52.10;;;;;;5033457;22;20400;-56
2022/03/18 12:41:00;;;;;;;;;;;18.80;52.10;;;;;;5021868;28;19925;-55
2022/03/18 12:43:26;;;;;;;;;;;18.80;52.00;;;;;;5024138;28;19917;-56
2022/03/18 12:45:51;;;;;;;;;;;18.80;52.00;;;;;;5024210;28;19941;-52
2022/03/18 12:48:17;;;;;;;;;;;18.80;52.00;;;;;;5017995;28;19953;-53
2022/03/18 12:50:44;;;;;;;;;;;18.90;52.00;;;;;;5023657;28;19920;-54
2022/03/18 12:53:20;;;;;;;;;;;18.90;51.90;;;;;;5009262;28;20335;-57
2022/03/18 12:55:49;;;;;;;;;;;18.90;51.90;;;;;;5020735;28;19944;-56
2022/03/18 12:58:14;;;;;;;;;;;18.90;51.80;;;;;;5015545;28;19921;-57
2022/03/18 13:00:40;;;;;;;;;;;18.90;51.80;;;;;;5022809;28;20110;-53
2022/03/18 13:03:06;;;;;;;;;;;18.90;51.80;;;;;;5023101;28;19925;-56
2022/03/18 13:05:32;;;;;;;;;;;18.90;51.70;;;;;;5023378;28;19980;-56
2022/03/18 13:07:58;;;;;;;;;;;18.90;51.70;;;;;;5023456;28;19945;-53
2022/03/18 13:10:23;;;;;;;;;;;18.90;51.70;;;;;;5022911;28;19917;-53
2022/03/18 13:12:49;;;;;;;;;;;18.90;51.70;;;;;;5023667;28;20008;-53
2022/03/18 13:15:15;;;;;;;;;;;19.00;51.70;;;;;;5022509;28;19913;-58
2022/03/18 13:17:40;;;;;;;;;;;19.00;51.70;;;;;;5022716;28;19913;-58
2022/03/18 13:20:19;;;;;;;;;;;19.00;51.70;;;;;;5023340;28;20286;-59
2022/03/18 13:22:44;;;;;;;;;;;19.00;51.60;;;;;;5022527;28;19913;-56
2022/03/18 13:25:10;;;;;;;;;;;19.00;51.60;;;;;;5023374;28;19913;-58
2022/03/18 13:27:35;;;;;;;;;;;19.00;51.60;;;;;;5008099;28;19918;-52
2022/03/18 13:32:50;;;;;;;;;;;19.00;51.50;;;;;;5012554;28;19921;-54
2022/03/18 13:35:16;;;;;;;;;;;19.00;51.50;;;;;;5023616;28;19917;-54
2022/03/18 13:37:41;;;;;;;;;;;19.00;51.50;;;;;;5023086;28;20022;-56
2022/03/18 13:40:13;;;;;;;;;;;19.00;51.50;;;;;;5016418;28;19921;-57
2022/03/18 13:42:39;;;;;;;;;;;19.00;51.50;;;;;;5018998;28;19928;-57
2022/03/18 13:45:05;;;;;;;;;;;19.00;51.50;;;;;;5022600;28;20694;-55
2022/03/18 13:47:46;;;;;;;;;;;19.10;51.50;;;;;;5022921;28;19917;-52
2022/03/18 13:50:14;;;;;;;;;;;19.00;51.50;;;;;;5019663;28;19917;-54
2022/03/18 13:52:39;;;;;;;;;;;19.00;51.50;;;;;;5022757;28;20294;-54
2022/03/18 13:55:05;;;;;;;;;;;19.00;51.50;;;;;;5012333;28;19913;-54
2022/03/18 13:57:45;;;;;;;;;;;19.00;51.50;;;;;;5012436;28;20156;-55
2022/03/18 14:00:11;;;;;;;;;;;19.00;51.40;;;;;;5025610;28;20366;-57
2022/03/18 14:02:36;;;;;;;;;;;19.00;51.40;;;;;;5022175;28;19920;-57
2022/03/18 14:05:02;;;;;;;;;;;19.00;51.40;;;;;;5022810;28;19914;-58
2022/03/18 14:07:46;;;;;;;;;;;19.00;51.40;;;;;;5016615;28;19914;-52
2022/03/18 14:10:13;;;;;;;;;;;19.10;51.50;;;;;;5021639;28;20010;-52
2022/03/18 14:12:38;;;;;;;;;;;19.10;51.40;;;;;;5022198;28;19913;-54
2022/03/18 14:15:07;;;;;;;;;;;19.00;51.30;;;;;;5022301;28;19920;-52
2022/03/18 14:17:33;;;;;;;;;;;19.00;51.30;;;;;;5018587;28;20210;-56
2022/03/18 14:19:58;;;;;;;;;;;19.10;51.30;;;;;;5021709;28;19917;-55
2022/03/18 14:22:27;;;;;;;;;;;19.10;51.30;;;;;;5021826;28;19913;-56
2022/03/18 14:24:53;;;;;;;;;;;19.10;51.40;;;;;;5021547;28;19917;-53
2022/03/18 14:27:18;;;;;;;;;;;19.00;51.30;;;;;;5019377;28;19913;-54
2022/03/18 14:29:44;;;;;;;;;;;19.00;51.30;;;;;;5021735;28;19917;-56
2022/03/18 14:32:09;;;;;;;;;;;19.10;51.30;;;;;;5021698;28;20597;-57
2022/03/18 14:34:34;;;;;;;;;;;19.10;51.30;;;;;;5021735;28;19913;-54
2022/03/18 14:37:00;;;;;;;;;;;19.10;51.20;;;;;;5022053;28;19975;-55
2022/03/18 14:39:25;;;;;;;;;;;19.10;51.20;;;;;;5021095;28;19929;-52